Time;durP1;ratioP1;P1;durP2;ratioP2;P2;SDS_P1;SDS_P2;PMS_P1;PMS_P2;Temp;Humidity;BMP_temperature;BMP_pressure;BME280_temperature;BME280_humidity;BME280_pressure;Samples;Min_cycle;Max_cycle;Signal;HPM_P1;HPM_P2
2023/09/26 00:00:01;;;;;;;6.13;3.60;;;;;;;19.86;99.40;100724.44;6257461;28;20106;-72
2023/09/26 00:03:01;;;;;;;6.63;4.05;;;;;;;19.67;99.49;100721.75;6252411;28;20041;-73
2023/09/26 00:06:17;;;;;;;14.55;4.10;;;;;;;19.65;99.42;100724.53;6250384;28;20049;-73
2023/09/26 00:09:20;;;;;;;11.00;4.72;;;;;;;19.60;99.08;100729.41;6261413;28;20081;-74
2023/09/26 00:12:21;;;;;;;5.60;3.78;;;;;;;19.63;97.75;100729.13;6270469;28;20514;-73
2023/09/26 00:15:22;;;;;;;9.43;4.67;;;;;;;19.62;97.71;100730.09;6254581;28;20056;-73
2023/09/26 00:18:23;;;;;;;9.40;3.70;;;;;;;19.56;97.14;100737.72;6245820;28;20053;-72
2023/09/26 00:21:24;;;;;;;6.90;4.00;;;;;;;19.49;96.77;100727.69;6285164;28;20049;-72
2023/09/26 00:24:25;;;;;;;6.88;4.13;;;;;;;19.63;95.77;100738.88;6268919;28;20045;-72
2023/09/26 00:27:26;;;;;;;7.27;3.60;;;;;;;19.63;95.06;100739.72;6270395;28;20060;-73
2023/09/26 00:30:29;;;;;;;5.40;3.83;;;;;;;19.65;95.21;100737.75;6249166;28;20049;-73
2023/09/26 00:33:33;;;;;;;6.78;3.97;;;;;;;19.59;95.29;100730.38;6245451;28;20053;-72
2023/09/26 00:36:34;;;;;;;6.82;3.95;;;;;;;19.64;93.81;100735.25;6246687;28;20427;-72
2023/09/26 00:39:36;;;;;;;11.00;4.67;;;;;;;19.58;94.09;100736.66;6243616;28;20533;-73
2023/09/26 00:42:39;;;;;;;;;;;;;;;19.59;94.17;100745.41;6249266;28;20049;-72
2023/09/26 00:45:40;;;;;;;4.70;3.13;;;;;;;19.48;94.12;100736.59;6256490;28;19967;-72
2023/09/26 00:48:41;;;;;;;6.07;4.07;;;;;;;19.49;94.09;100743.56;6269559;28;20049;-72
2023/09/26 00:51:42;;;;;;;6.78;4.38;;;;;;;19.44;93.86;100743.16;6265984;28;20325;-72
2023/09/26 00:54:43;;;;;;;7.35;3.63;;;;;;;19.40;94.03;100747.03;6248768;28;20040;-73
2023/09/26 00:57:45;;;;;;;6.82;4.30;;;;;;;19.39;93.68;100740.03;6261818;28;20049;-72
2023/09/26 01:00:50;;;;;;;12.15;4.47;;;;;;;19.44;93.31;100748.44;6275037;28;20519;-73
2023/09/26 01:03:52;;;;;;;5.93;4.05;;;;;;;19.38;93.67;100748.13;6270089;28;20417;-72
2023/09/26 01:06:53;;;;;;;10.27;4.30;;;;;;;19.34;93.73;100755.50;6249201;28;20061;-72
2023/09/26 01:09:55;;;;;;;6.23;3.87;;;;;;;19.37;93.63;100754.38;6248779;28;20489;-72
2023/09/26 01:12:56;;;;;;;9.73;4.38;;;;;;;19.30;93.30;100760.22;6248714;28;20052;-72
2023/09/26 01:16:14;;;;;;;6.37;3.60;;;;;;;19.18;93.85;100755.97;6254676;28;20060;-73
2023/09/26 01:19:15;;;;;;;9.00;3.97;;;;;;;19.24;93.34;100760.75;6274340;28;20041;-73
2023/09/26 01:22:19;;;;;;;7.33;3.90;;;;;;;19.28;93.07;100761.31;6272918;28;20514;-72
2023/09/26 01:25:20;;;;;;;9.25;4.32;;;;;;;19.32;92.68;100760.09;6272612;28;20588;-73
2023/09/26 01:28:21;;;;;;;10.90;4.20;;;;;;;19.25;93.07;100751.00;6274274;28;20065;-72
2023/09/26 01:31:22;;;;;;;12.35;3.80;;;;;;;19.24;93.34;100757.28;6269210;28;20049;-73
2023/09/26 01:34:23;;;;;;;7.97;4.10;;;;;;;19.13;93.83;100751.09;6266240;28;20429;-73
2023/09/26 01:37:24;;;;;;;7.68;3.72;;;;;;;19.07;93.61;100753.44;6267409;28;20440;-72
2023/09/26 01:40:25;;;;;;;7.87;3.87;;;;;;;19.08;94.02;100755.09;6261052;28;20045;-72
2023/09/26 01:43:26;;;;;;;5.90;4.00;;;;;;;19.03;94.44;100750.22;6262797;28;20057;-72
2023/09/26 01:46:27;;;;;;;5.05;3.50;;;;;;;18.99;93.96;100759.38;6257688;28;20410;-73
2023/09/26 01:49:30;;;;;;;8.30;4.07;;;;;;;18.99;94.07;100751.44;6249045;28;20091;-73
2023/09/26 01:52:32;;;;;;;6.28;3.80;;;;;;;18.97;93.97;100752.53;6266317;28;20059;-72
2023/09/26 01:55:33;;;;;;;10.10;4.25;;;;;;;18.91;94.58;100751.25;6259748;28;20049;-72
2023/09/26 01:58:34;;;;;;;7.67;3.57;;;;;;;18.86;94.62;100753.44;6252605;28;20132;-73
2023/09/26 02:01:35;;;;;;;7.03;4.13;;;;;;;18.78;94.81;100750.56;6249209;28;20624;-72
2023/09/26 02:04:36;;;;;;;6.15;3.95;;;;;;;18.73;94.44;100753.63;6256852;28;20055;-73
2023/09/26 02:07:37;;;;;;;6.82;4.40;;;;;;;18.70;94.56;100744.13;6250316;28;20084;-72
2023/09/26 02:10:38;;;;;;;5.77;4.17;;;;;;;18.66;94.83;100753.28;6268215;28;20412;-73
2023/09/26 02:13:39;;;;;;;15.40;4.00;;;;;;;18.61;95.05;100757.28;6268851;28;20064;-73
2023/09/26 02:16:40;;;;;;;5.85;3.58;;;;;;;18.64;95.18;100754.41;6269752;28;20053;-73
2023/09/26 02:19:41;;;;;;;9.18;4.10;;;;;;;18.67;94.91;100754.97;6262633;28;20044;-73
2023/09/26 02:22:45;;;;;;;4.75;3.55;;;;;;;18.64;94.57;100751.75;6264084;28;20049;-72
2023/09/26 02:25:52;;;;;;;15.10;3.97;;;;;;;18.72;93.58;100744.03;6253371;28;20553;-72
2023/09/26 02:28:53;;;;;;;9.27;4.18;;;;;;;18.68;93.50;100751.38;6247257;28;20498;-72
2023/09/26 02:31:55;;;;;;;10.27;3.63;;;;;;;18.47;94.84;100740.78;6264934;28;20053;-72
2023/09/26 02:34:56;;;;;;;7.75;4.00;;;;;;;19.30;90.56;100754.91;6256663;28;20045;-73
2023/09/26 02:37:57;;;;;;;6.35;3.80;;;;;;;19.88;85.18;100745.50;6264590;28;20130;-73
2023/09/26 02:41:00;;;;;;;6.18;4.07;;;;;;;19.12;88.36;100751.22;6254039;28;20056;-72
2023/09/26 02:44:03;;;;;;;6.93;3.85;;;;;;;18.62;91.79;100749.22;6257792;28;20128;-72
2023/09/26 02:47:04;;;;;;;10.13;3.83;;;;;;;18.52;92.98;100746.50;6259679;28;20053;-72
2023/09/26 02:50:06;;;;;;;7.65;3.88;;;;;;;18.43;93.00;100749.94;6253628;28;20045;-72
2023/09/26 02:53:07;;;;;;;8.82;4.35;;;;;;;18.47;93.75;100755.78;6255018;28;20053;-72
2023/09/26 02:56:11;;;;;;;8.00;3.97;;;;;;;18.43;94.01;100754.34;6253397;28;20049;-72
2023/09/26 02:59:12;;;;;;;8.57;4.28;;;;;;;18.40;93.77;100757.28;6269761;28;20493;-72
2023/09/26 03:02:16;;;;;;;8.03;4.33;;;;;;;18.35;93.82;100754.19;6258694;28;20041;-72
2023/09/26 03:05:17;;;;;;;5.30;3.80;;;;;;;18.36;93.34;100751.41;6257270;28;20490;-72
2023/09/26 03:08:18;;;;;;;6.43;4.22;;;;;;;18.35;93.09;100746.25;6262789;28;20049;-72
2023/09/26 03:11:21;;;;;;;7.82;4.45;;;;;;;18.27;93.28;100753.00;6259008;28;20045;-72
2023/09/26 03:14:23;;;;;;;7.18;3.92;;;;;;;18.33;93.29;100749.84;6253412;28;20076;-73
2023/09/26 03:17:23;;;;;;;6.13;3.95;;;;;;;18.35;93.13;100751.53;6253260;28;20429;-72
2023/09/26 03:20:25;;;;;;;10.70;4.65;;;;;;;18.31;93.57;100754.44;6266477;28;20085;-72
2023/09/26 03:23:26;;;;;;;7.03;4.40;;;;;;;18.25;93.99;100752.28;6255902;28;20057;-72
2023/09/26 03:26:27;;;;;;;10.75;4.70;;;;;;;18.29;93.52;100752.88;6257597;28;20049;-72
2023/09/26 03:29:28;;;;;;;8.73;4.33;;;;;;;18.24;94.15;100752.41;6251880;28;20045;-73
2023/09/26 03:32:29;;;;;;;17.35;5.13;;;;;;;18.27;93.92;100744.25;6253575;28;20541;-72
2023/09/26 03:35:33;;;;;;;10.68;4.55;;;;;;;18.30;93.34;100750.13;6269119;28;20053;-72
2023/09/26 03:38:34;;;;;;;7.68;4.47;;;;;;;18.33;91.96;100759.59;6253543;28;20052;-72
2023/09/26 03:41:35;;;;;;;9.65;4.78;;;;;;;18.29;92.47;100756.34;6267380;28;20499;-73
2023/09/26 03:44:36;;;;;;;8.80;4.90;;;;;;;18.27;91.94;100757.44;6258938;28;20183;-72
2023/09/26 03:47:37;;;;;;;12.20;4.90;;;;;;;18.35;91.37;100756.84;6257823;28;20103;-72
2023/09/26 03:50:40;;;;;;;7.25;4.85;;;;;;;18.30;91.46;100752.75;6262796;28;20041;-72
2023/09/26 03:53:42;;;;;;;7.78;4.65;;;;;;;18.34;91.23;100755.97;6260168;28;20145;-72
2023/09/26 03:56:45;;;;;;;9.30;4.68;;;;;;;18.28;91.49;100753.84;6250439;28;20505;-72
2023/09/26 03:59:49;;;;;;;9.77;4.47;;;;;;;18.25;91.35;100756.75;6245993;28;20053;-72
2023/09/26 04:02:50;;;;;;;10.38;4.63;;;;;;;18.24;91.37;100753.28;6262437;28;20107;-72
2023/09/26 04:06:00;;;;;;;10.25;4.97;;;;;;;18.26;91.87;100753.13;6261465;28;20049;-73
2023/09/26 04:09:03;;;;;;;9.98;4.57;;;;;;;18.17;92.54;100754.72;6259118;28;20050;-73
2023/09/26 04:12:06;;;;;;;11.88;4.50;;;;;;;18.14;92.32;100757.63;6249175;28;20042;-73
2023/09/26 04:15:07;;;;;;;10.82;4.50;;;;;;;18.04;93.23;100756.69;6244581;28;20140;-72
2023/09/26 04:18:08;;;;;;;6.93;4.57;;;;;;;18.02;92.82;100753.34;6262553;28;20512;-73
2023/09/26 04:21:09;;;;;;;8.80;5.35;;;;;;;18.01;93.83;100752.47;6267866;28;20049;-72
2023/09/26 04:24:10;;;;;;;8.23;4.93;;;;;;;17.90;94.55;100755.16;6253742;28;20045;-73
2023/09/26 04:27:11;;;;;;;6.20;4.60;;;;;;;17.85;94.91;100742.34;6270628;28;20485;-72
2023/09/26 04:30:13;;;;;;;15.85;5.18;;;;;;;17.90;94.48;100750.72;6267945;28;20087;-73
2023/09/26 04:33:14;;;;;;;11.20;5.35;;;;;;;17.92;94.46;100756.72;6262240;28;20591;-72
2023/09/26 04:36:15;;;;;;;6.90;4.70;;;;;;;17.84;94.13;100758.31;6269808;28;20081;-73
2023/09/26 04:39:18;;;;;;;13.93;5.47;;;;;;;17.78;94.58;100751.69;6257952;28;20425;-73
2023/09/26 04:42:18;;;;;;;8.00;5.38;;;;;;;17.70;95.05;100747.00;6244540;28;20072;-72
2023/09/26 04:45:19;;;;;;;16.05;4.75;;;;;;;17.74;94.96;100763.44;6250312;28;20519;-73
2023/09/26 04:48:20;;;;;;;9.20;4.85;;;;;;;17.80;95.10;100765.59;6256347;28;20049;-73
2023/09/26 04:51:24;;;;;;;7.03;4.28;;;;;;;17.79;95.55;100771.84;6257821;28;20144;-73
2023/09/26 04:54:25;;;;;;;8.38;4.72;;;;;;;17.85;94.00;100771.38;6248304;28;20056;-72
2023/09/26 04:57:26;;;;;;;6.28;4.47;;;;;;;17.75;93.88;100773.06;6269866;28;20057;-73
2023/09/26 05:00:28;;;;;;;8.65;4.38;;;;;;;18.01;93.91;100773.59;6270080;28;20477;-72
2023/09/26 05:03:29;;;;;;;;;;;;;;;18.07;93.43;100774.91;6270964;28;20056;-73
2023/09/26 05:06:30;;;;;;;11.15;4.80;;;;;;;18.02;93.29;100770.03;6245621;28;19928;-72
2023/09/26 05:09:31;;;;;;;12.27;5.40;;;;;;;18.10;93.29;100774.69;6268505;28;20049;-72
2023/09/26 05:12:32;;;;;;;11.30;5.32;;;;;;;18.23;92.44;100770.06;6245462;28;20076;-72
2023/09/26 05:15:34;;;;;;;12.63;5.53;;;;;;;18.18;91.90;100777.53;6249325;28;20049;-73
2023/09/26 05:18:36;;;;;;;9.10;5.57;;;;;;;18.20;92.55;100770.34;6269220;28;20040;-72
2023/09/26 05:21:37;;;;;;;9.15;5.25;;;;;;;18.23;93.09;100772.72;6264820;28;20484;-73
2023/09/26 05:24:40;;;;;;;7.32;4.97;;;;;;;18.26;92.97;100776.91;6268819;28;20056;-73
2023/09/26 05:27:44;;;;;;;12.02;4.95;;;;;;;18.26;91.67;100780.41;6265724;28;20053;-72
2023/09/26 05:30:45;;;;;;;16.85;5.82;;;;;;;18.40;92.10;100781.06;6248181;28;20050;-73
2023/09/26 05:33:46;;;;;;;12.60;5.10;;;;;;;18.47;91.29;100780.44;6244584;28;20468;-72
2023/09/26 05:36:49;;;;;;;8.02;5.30;;;;;;;18.63;90.80;100782.59;6243937;28;20119;-73
2023/09/26 05:39:51;;;;;;;17.33;5.45;;;;;;;18.68;90.06;100787.53;6244026;28;20049;-72
2023/09/26 05:42:52;;;;;;;6.65;4.78;;;;;;;18.72;89.42;100784.50;6243923;28;20131;-72
2023/09/26 05:45:52;;;;;;;12.80;5.00;;;;;;;18.75;89.68;100787.84;6249663;28;20053;-73
2023/09/26 05:48:56;;;;;;;7.22;4.70;;;;;;;18.84;89.70;100787.97;6249244;28;20539;-73
2023/09/26 05:51:57;;;;;;;11.55;5.32;;;;;;;18.94;88.41;100801.22;6248245;28;20482;-73
2023/09/26 05:54:58;;;;;;;14.07;4.63;;;;;;;18.98;87.98;100791.22;6281069;28;20485;-73
2023/09/26 05:57:59;;;;;;;9.07;5.30;;;;;;;19.09;87.81;100793.81;6248149;28;20062;-73
2023/09/26 06:01:08;;;;;;;10.00;5.00;;;;;;;19.14;87.21;100794.25;6249497;28;20132;-73
2023/09/26 06:04:10;;;;;;;10.65;5.28;;;;;;;19.39;87.42;100800.91;6249237;28;20100;-72
2023/09/26 06:07:11;;;;;;;7.03;4.78;;;;;;;19.44;85.94;100804.00;6247714;28;20057;-73
2023/09/26 06:10:14;;;;;;;6.93;4.72;;;;;;;19.61;85.66;100799.06;6247815;28;20045;-73
2023/09/26 06:13:15;;;;;;;10.25;5.20;;;;;;;19.68;84.77;100798.41;6248686;28;20460;-73
2023/09/26 06:16:18;;;;;;;12.00;5.18;;;;;;;19.73;85.46;100796.19;6248418;28;20065;-72
2023/09/26 06:19:20;;;;;;;9.02;4.70;;;;;;;19.90;84.67;100800.00;6248881;28;20060;-73
2023/09/26 06:22:20;;;;;;;9.25;5.07;;;;;;;19.88;83.91;100799.28;6247421;28;20057;-73
2023/09/26 06:25:24;;;;;;;8.95;5.30;;;;;;;20.03;83.01;100801.56;6247516;28;20045;-72
2023/09/26 06:28:27;;;;;;;10.07;5.00;;;;;;;20.23;82.67;100795.31;6248389;28;20052;-72
2023/09/26 06:31:27;;;;;;;;;;;;;;;20.18;82.16;100802.00;6249011;28;20053;-72
2023/09/26 06:34:31;;;;;;;11.07;4.97;;;;;;;20.36;82.83;100802.16;6248167;28;19921;-72
2023/09/26 06:37:34;;;;;;;7.57;4.85;;;;;;;20.51;81.12;100791.00;6248178;28;20072;-72
2023/09/26 06:40:35;;;;;;;9.93;5.05;;;;;;;20.57;80.93;100789.63;6248208;28;20042;-73
2023/09/26 06:43:36;;;;;;;7.63;5.13;;;;;;;20.72;80.62;100790.03;6248368;28;20053;-72
2023/09/26 06:46:37;;;;;;;8.55;4.88;;;;;;;20.76;79.63;100795.91;6246847;28;20054;-72
2023/09/26 06:49:39;;;;;;;8.82;5.10;;;;;;;20.95;78.59;100803.00;6248127;28;20049;-72
2023/09/26 06:52:40;;;;;;;9.43;5.20;;;;;;;21.14;78.73;100797.63;6246970;28;20060;-72
2023/09/26 06:55:41;;;;;;;13.33;5.40;;;;;;;21.26;79.56;100798.28;6247264;28;20045;-72
2023/09/26 06:58:42;;;;;;;10.30;5.17;;;;;;;21.31;80.19;100791.56;6247877;28;20050;-72
2023/09/26 07:01:43;;;;;;;5.73;4.57;;;;;;;21.31;76.92;100796.88;6246462;28;20045;-72
2023/09/26 07:04:44;;;;;;;7.20;5.10;;;;;;;21.51;78.28;100804.78;6247746;28;20049;-72
2023/09/26 07:07:45;;;;;;;5.90;4.60;;;;;;;21.67;77.46;100806.81;6246206;28;20087;-72
2023/09/26 07:10:46;;;;;;;10.27;4.50;;;;;;;21.79;77.88;100804.81;6247724;28;20053;-72
2023/09/26 07:13:47;;;;;;;7.97;4.50;;;;;;;21.79;77.62;100813.59;6246235;28;20045;-73
2023/09/26 07:16:51;;;;;;;12.30;4.88;;;;;;;21.98;78.52;100811.81;6246238;28;20517;-72
2023/09/26 07:19:52;;;;;;;25.13;5.80;;;;;;;22.07;76.58;100813.56;6247095;28;20046;-72
2023/09/26 07:22:53;;;;;;;7.07;4.37;;;;;;;22.30;76.65;100824.66;6246154;28;20512;-72
2023/09/26 07:26:12;;;;;;;12.40;4.77;;;;;;;22.17;76.54;100824.16;6247100;28;20103;-73
2023/09/26 07:29:12;;;;;;;13.63;4.68;;;;;;;22.42;75.27;100827.91;6247401;28;20187;-72
2023/09/26 07:32:17;;;;;;;9.43;4.90;;;;;;;22.75;75.86;100831.69;6245784;28;20049;-73
2023/09/26 07:35:18;;;;;;;7.45;4.20;;;;;;;23.01;75.06;100834.41;6245465;28;20512;-73
2023/09/26 07:38:21;;;;;;;7.63;4.95;;;;;;;23.17;73.88;100838.19;6245594;28;20045;-73
2023/09/26 07:41:24;;;;;;;10.63;5.00;;;;;;;23.41;73.34;100832.16;6246565;28;20045;-73
2023/09/26 07:44:25;;;;;;;8.00;4.72;;;;;;;23.52;71.12;100835.38;6246865;28;20068;-72
2023/09/26 07:47:28;;;;;;;8.90;4.23;;;;;;;23.78;71.03;100833.69;6246562;28;20049;-73
2023/09/26 07:50:30;;;;;;;15.75;5.40;;;;;;;23.91;71.00;100829.56;6246423;28;20303;-73
2023/09/26 07:53:34;;;;;;;10.93;4.97;;;;;;;23.76;69.01;100833.81;6246363;28;20503;-73
2023/09/26 07:56:35;;;;;;;12.63;4.72;;;;;;;24.06;70.67;100835.09;6246230;28;20422;-73
2023/09/26 07:59:37;;;;;;;11.63;4.23;;;;;;;24.15;67.10;100835.97;6246340;28;20052;-73
2023/09/26 08:02:39;;;;;;;11.65;4.47;;;;;;;24.19;67.61;100839.13;6246246;28;20482;-73
2023/09/26 08:05:43;;;;;;;6.03;4.25;;;;;;;24.23;65.93;100835.97;6246608;28;20421;-73
2023/09/26 08:08:45;;;;;;;10.45;4.55;;;;;;;24.49;66.91;100833.22;6253274;28;20045;-72
2023/09/26 08:11:45;;;;;;;;;;;;;;;24.86;67.73;100831.06;6244033;28;20064;-73
2023/09/26 08:14:46;;;;;;;14.25;5.05;;;;;;;25.00;64.86;100834.84;6245921;28;19928;-73
2023/09/26 08:17:47;;;;;;;9.07;4.23;;;;;;;25.17;63.48;100822.34;6244160;28;20079;-73
2023/09/26 08:20:48;;;;;;;5.53;4.03;;;;;;;25.40;63.81;100833.97;6244358;28;20049;-73
2023/09/26 08:23:50;;;;;;;10.63;3.87;;;;;;;25.20;59.07;100819.31;6244303;28;20045;-73
2023/09/26 08:26:51;;;;;;;11.93;4.18;;;;;;;25.44;61.54;100816.59;6244314;28;20099;-74
2023/09/26 08:29:52;;;;;;;13.82;3.90;;;;;;;25.37;58.64;100822.78;6245331;28;20084;-73
2023/09/26 08:32:56;;;;;;;16.30;4.23;;;;;;;25.64;60.07;100826.91;6244411;28;20045;-73
2023/09/26 08:35:56;;;;;;;6.72;4.32;;;;;;;25.67;57.16;100821.19;6245307;28;20057;-73
2023/09/26 08:38:59;;;;;;;12.97;3.73;;;;;;;25.91;57.91;100828.31;6244341;28;20091;-73
2023/09/26 08:42:00;;;;;;;9.00;4.00;;;;;;;26.08;57.06;100819.16;6244088;28;20057;-73
2023/09/26 08:45:01;;;;;;;12.73;4.13;;;;;;;26.41;58.67;100823.47;6244376;28;20053;-73
2023/09/26 08:48:04;;;;;;;7.78;4.20;;;;;;;26.58;54.76;100827.69;6243895;28;20095;-73
2023/09/26 08:51:06;;;;;;;13.55;4.30;;;;;;;26.87;54.99;100824.28;6243736;28;20490;-73
2023/09/26 08:54:07;;;;;;;6.53;3.80;;;;;;;26.70;50.55;100814.72;6243958;28;20501;-73
2023/09/26 08:57:11;;;;;;;13.90;3.53;;;;;;;26.84;52.47;100823.81;6245256;28;20084;-73
2023/09/26 09:00:13;;;;;;;11.48;4.25;;;;;;;27.94;49.18;100825.78;6243875;28;20124;-73
2023/09/26 09:03:14;;;;;;;8.13;3.83;;;;;;;28.50;47.51;100823.31;6245473;28;20140;-73
2023/09/26 09:06:15;;;;;;;;;;;;;;;28.78;44.47;100816.28;6245300;28;20064;-73
2023/09/26 09:09:18;;;;;;;6.63;3.27;;;;;;;28.96;43.72;100811.25;6244975;28;20362;-73
2023/09/26 09:12:25;;;;;;;7.95;3.53;;;;;;;28.90;43.97;100810.19;6245424;28;20052;-73
2023/09/26 09:15:28;;;;;;;6.63;3.40;;;;;;;29.28;44.69;100814.38;6245684;28;20160;-73
2023/09/26 09:18:32;;;;;;;25.52;4.18;;;;;;;29.27;43.71;100810.03;6248049;28;20061;-72
2023/09/26 09:21:34;;;;;;;9.07;3.38;;;;;;;29.25;40.62;100807.53;6284320;28;20095;-73
2023/09/26 09:24:36;;;;;;;7.28;3.10;;;;;;;29.20;41.26;100803.78;6252556;28;20123;-74
2023/09/26 09:27:40;;;;;;;9.30;3.75;;;;;;;29.48;40.69;100798.34;6247994;28;20075;-74
2023/09/26 09:30:44;;;;;;;10.75;4.28;;;;;;;29.86;41.67;100795.22;6248140;28;20053;-73
2023/09/26 09:33:46;;;;;;;8.18;3.25;;;;;;;29.86;40.84;100796.06;6248083;28;20098;-73
2023/09/26 09:36:47;;;;;;;4.38;3.25;;;;;;;29.72;41.79;100787.09;6248163;28;20192;-73
2023/09/26 09:39:48;;;;;;;8.73;3.05;;;;;;;29.90;40.09;100794.63;6248719;28;20046;-73
2023/09/26 09:42:49;;;;;;;10.93;3.40;;;;;;;29.92;39.91;100791.72;6281679;28;20045;-73
2023/09/26 09:45:53;;;;;;;12.70;3.33;;;;;;;29.92;40.49;100789.88;6247903;28;20046;-73
2023/09/26 09:48:58;;;;;;;15.57;3.25;;;;;;;30.27;38.67;100780.78;6249048;28;20448;-73
2023/09/26 09:52:06;;;;;;;7.45;2.88;;;;;;;30.04;37.17;100778.50;6248170;28;20049;-74
2023/09/26 09:55:09;;;;;;;8.95;2.90;;;;;;;29.98;38.81;100780.16;6249270;28;20060;-73
2023/09/26 09:58:11;;;;;;;6.75;2.88;;;;;;;30.26;36.99;100776.47;6248996;28;20089;-73
2023/09/26 10:01:13;;;;;;;5.55;3.05;;;;;;;30.09;36.63;100776.03;6248055;28;20049;-73
2023/09/26 10:04:15;;;;;;;10.82;3.50;;;;;;;30.30;37.43;100769.66;6247606;28;20075;-73
2023/09/26 10:07:17;;;;;;;5.35;2.75;;;;;;;30.73;36.65;100771.94;6247537;28;20056;-73
2023/09/26 10:10:18;;;;;;;7.13;2.90;;;;;;;30.79;37.19;100764.88;6249014;28;20049;-72
2023/09/26 10:13:20;;;;;;;9.27;2.80;;;;;;;30.91;37.27;100763.22;6256336;28;20243;-73
2023/09/26 10:16:22;;;;;;;8.55;3.35;;;;;;;30.90;36.47;100754.31;6245413;28;20062;-73
2023/09/26 10:19:28;;;;;;;6.47;2.95;;;;;;;31.36;36.61;100762.47;6247502;28;20045;-74
2023/09/26 10:22:34;;;;;;;5.45;2.97;;;;;;;31.19;35.38;100759.41;6248663;28;20489;-73
2023/09/26 10:25:36;;;;;;;6.15;2.95;;;;;;;30.82;35.68;100757.19;6246812;28;20476;-73
2023/09/26 10:28:40;;;;;;;4.05;2.53;;;;;;;30.85;33.50;100747.88;6247537;28;20057;-73
2023/09/26 10:31:49;;;;;;;7.30;2.80;;;;;;;30.80;34.81;100736.91;6246486;28;20060;-73
2023/09/26 10:34:50;;;;;;;8.23;2.92;;;;;;;31.06;33.49;100746.81;6246973;28;20142;-73
2023/09/26 10:38:06;;;;;;;9.27;2.97;;;;;;;30.91;33.49;100741.69;6246653;28;20049;-73
2023/09/26 10:41:09;;;;;;;11.48;2.95;;;;;;;30.95;35.13;100731.28;6246492;28;20061;-72
2023/09/26 10:44:10;;;;;;;14.00;2.95;;;;;;;31.21;34.39;100736.59;6247991;28;20053;-73
2023/09/26 10:47:15;;;;;;;11.20;2.58;;;;;;;31.11;30.20;100725.44;6247965;28;20060;-73
2023/09/26 10:50:16;;;;;;;6.25;2.33;;;;;;;31.31;33.44;100730.75;6247842;28;20046;-73
2023/09/26 10:53:19;;;;;;;9.00;2.72;;;;;;;31.32;33.58;100724.34;6247804;28;20055;-73
2023/09/26 10:56:20;;;;;;;4.32;2.72;;;;;;;31.35;33.13;100721.19;6247648;28;20473;-73
2023/09/26 10:59:21;;;;;;;10.25;2.70;;;;;;;31.45;34.46;100726.16;6247299;28;20049;-73
2023/09/26 11:02:22;;;;;;;8.38;3.13;;;;;;;31.48;33.07;100723.03;6247831;28;20046;-72
2023/09/26 11:05:26;;;;;;;9.00;2.60;;;;;;;31.47;32.76;100719.50;6247524;28;20053;-73
2023/09/26 11:08:27;;;;;;;5.95;2.90;;;;;;;31.60;32.19;100715.09;6248008;28;20057;-73
2023/09/26 11:11:28;;;;;;;4.38;2.45;;;;;;;31.27;31.21;100716.06;6245905;28;20121;-73
2023/09/26 11:14:32;;;;;;;8.30;2.80;;;;;;;31.49;33.05;100708.53;6247479;28;20045;-74
2023/09/26 11:17:36;;;;;;;9.38;2.40;;;;;;;31.80;34.15;100715.78;6245452;28;20445;-73
2023/09/26 11:20:41;;;;;;;7.55;2.53;;;;;;;31.22;29.14;100714.00;6246150;28;20049;-74
2023/09/26 11:23:45;;;;;;;12.35;2.70;;;;;;;31.52;30.57;100708.88;6247056;28;20063;-74
2023/09/26 11:26:46;;;;;;;8.05;2.78;;;;;;;31.73;33.78;100707.75;6247034;28;20047;-73
2023/09/26 11:29:46;;;;;;;8.77;2.40;;;;;;;31.43;32.48;100709.34;6246317;28;20049;-73
2023/09/26 11:32:54;;;;;;;8.15;2.63;;;;;;;31.55;30.92;100712.19;6245876;28;20080;-73
2023/09/26 11:35:55;;;;;;;6.35;2.75;;;;;;;31.44;28.05;100697.53;6246987;28;20064;-73
2023/09/26 11:38:58;;;;;;;;;;;;;;;31.33;30.10;100709.81;6247073;28;20512;-73
2023/09/26 11:42:06;;;;;;;3.25;2.00;;;;;;;31.33;28.97;100707.94;6245679;28;19920;-73
2023/09/26 11:45:07;;;;;;;6.88;2.50;;;;;;;31.32;31.03;100708.97;6245465;28;20103;-73
2023/09/26 11:48:08;;;;;;;5.97;2.55;;;;;;;31.96;31.82;100692.00;6246822;28;20061;-73
2023/09/26 11:51:08;;;;;;;13.02;2.40;;;;;;;31.98;32.00;100692.63;6246496;28;20068;-73
2023/09/26 11:54:12;;;;;;;17.08;3.28;;;;;;;31.01;29.64;100693.56;6246748;28;20049;-72
2023/09/26 11:57:13;;;;;;;3.70;2.28;;;;;;;31.28;29.27;100688.06;6246445;28;20474;-73
2023/09/26 12:00:17;;;;;;;6.25;2.53;;;;;;;31.40;30.59;100690.88;6245384;28;20056;-73
2023/09/26 12:03:18;;;;;;;3.65;2.55;;;;;;;31.26;30.14;100682.88;6245504;28;20056;-73
2023/09/26 12:06:19;;;;;;;5.88;2.42;;;;;;;31.26;29.81;100682.88;6246556;28;20132;-73
2023/09/26 12:09:21;;;;;;;8.43;2.70;;;;;;;31.46;29.39;100695.44;6245115;28;20076;-73
2023/09/26 12:12:22;;;;;;;;;;;;;;;31.41;31.17;100684.47;6246516;28;20471;-73
2023/09/26 12:15:24;;;;;;;4.70;2.60;;;;;;;31.37;29.90;100677.84;6245143;28;19921;-73
2023/09/26 12:18:25;;;;;;;6.13;2.33;;;;;;;31.45;31.39;100691.13;6245770;28;20061;-73
2023/09/26 12:21:27;;;;;;;4.45;2.40;;;;;;;31.39;29.91;100671.19;6257509;28;20049;-73
2023/09/26 12:24:30;;;;;;;7.32;2.60;;;;;;;31.35;31.62;100672.66;6266819;28;20107;-73
2023/09/26 12:27:31;;;;;;;7.18;2.40;;;;;;;31.40;29.82;100661.22;6254536;28;20132;-73
2023/09/26 12:30:33;;;;;;;4.72;2.45;;;;;;;31.51;32.53;100665.97;6251605;28;20056;-73
2023/09/26 12:33:33;;;;;;;11.13;2.63;;;;;;;31.42;30.43;100661.84;6269548;28;20049;-72
2023/09/26 12:36:35;;;;;;;7.97;2.78;;;;;;;31.39;31.70;100663.13;6270475;28;20136;-73
2023/09/26 12:39:36;;;;;;;9.60;2.50;;;;;;;31.42;31.11;100662.69;6262626;28;20064;-72
2023/09/26 12:42:37;;;;;;;6.07;2.88;;;;;;;31.40;29.80;100656.69;6269161;28;20107;-73
2023/09/26 12:45:37;;;;;;;5.10;2.15;;;;;;;31.47;31.07;100652.09;6270429;28;20538;-73
2023/09/26 12:48:40;;;;;;;3.13;2.10;;;;;;;31.16;30.12;100650.19;6260633;28;20057;-73
2023/09/26 12:51:41;;;;;;;9.52;3.45;;;;;;;31.33;33.29;100650.50;6263439;28;20045;-73
2023/09/26 12:54:44;;;;;;;5.78;2.60;;;;;;;31.50;32.13;100662.47;6270656;28;20056;-73
2023/09/26 12:57:45;;;;;;;10.60;2.80;;;;;;;31.44;30.96;100654.41;6273589;28;20053;-72
2023/09/26 13:00:47;;;;;;;11.55;2.55;;;;;;;31.05;30.26;100650.84;6273549;28;20481;-72
2023/09/26 13:03:47;;;;;;;6.20;2.72;;;;;;;31.15;32.83;100653.06;6272248;28;20069;-73
2023/09/26 13:06:48;;;;;;;8.77;2.80;;;;;;;30.88;31.22;100647.81;6258218;28;20045;-74
2023/09/26 13:09:50;;;;;;;6.10;2.88;;;;;;;31.13;32.40;100653.28;6256627;28;20048;-72
2023/09/26 13:12:51;;;;;;;5.25;2.38;;;;;;;31.01;31.43;100636.13;6261880;28;20045;-72
2023/09/26 13:15:52;;;;;;;8.65;2.40;;;;;;;31.24;34.49;100641.03;6260616;28;20183;-72
2023/09/26 13:18:53;;;;;;;15.80;2.72;;;;;;;30.76;31.91;100631.44;6252126;28;20054;-73
2023/09/26 13:21:54;;;;;;;5.22;2.50;;;;;;;31.05;33.06;100640.06;6250084;28;20045;-73
2023/09/26 13:24:55;;;;;;;7.88;2.50;;;;;;;30.88;31.29;100637.84;6270325;28;20053;-72
2023/09/26 13:27:56;;;;;;;5.80;2.60;;;;;;;30.71;33.48;100634.78;6273778;28;20075;-73
2023/09/26 13:30:56;;;;;;;9.80;2.53;;;;;;;30.61;30.75;100628.19;6274556;28;20053;-73
2023/09/26 13:33:57;;;;;;;9.48;2.58;;;;;;;30.79;33.12;100633.72;6273288;28;20061;-72
2023/09/26 13:36:58;;;;;;;7.15;2.10;;;;;;;30.63;33.34;100632.31;6274440;28;20512;-72
2023/09/26 13:40:00;;;;;;;5.85;2.63;;;;;;;30.62;32.05;100636.06;6273108;28;20052;-72
2023/09/26 13:43:01;;;;;;;2.75;2.10;;;;;;;30.48;33.90;100635.25;6273165;28;20048;-72
2023/09/26 13:46:02;;;;;;;;;;;;;;;30.41;32.60;100637.13;6273430;28;20059;-72
2023/09/26 13:49:03;;;;;;;11.07;2.58;;;;;;;30.36;33.08;100628.03;6274262;28;19920;-72
2023/09/26 13:52:04;;;;;;;5.75;2.30;;;;;;;30.49;34.07;100628.81;6273946;28;20052;-72
2023/09/26 13:55:05;;;;;;;8.80;2.65;;;;;;;30.59;33.27;100624.88;6274061;28;20115;-72
2023/09/26 13:58:06;;;;;;;;;;;;;;;30.30;32.67;100627.00;6268626;28;20049;-72
2023/09/26 14:01:08;;;;;;;5.47;3.00;;;;;;;30.34;35.25;100617.47;6254333;28;19921;-72
2023/09/26 14:04:09;;;;;;;8.20;2.80;;;;;;;30.37;35.85;100617.03;6256702;28;20536;-72